Time;durP1;ratioP1;P1;durP2;ratioP2;P2;SDS_P1;SDS_P2;PMS_P1;PMS_P2;Temp;Humidity;BMP_temperature;BMP_pressure;BME280_temperature;BME280_humidity;BME280_pressure;Samples;Min_cycle;Max_cycle;Signal;HPM_P1;HPM_P2
2023/08/22 00:01:43;;;;;;;;;;;;;;;;;;5078389;28;4861;-58
2023/08/22 00:04:08;;;;;;;;;;;;;;;;;;5074156;28;4956;-58
2023/08/22 00:06:34;;;;;;;;;;;;;;;;;;5075873;28;4871;-58
2023/08/22 00:08:59;;;;;;;;;;;;;;;;;;5068600;28;5505;-58
2023/08/22 00:11:24;;;;;;;;;;;;;;;;;;5078452;28;1934;-58
2023/08/22 00:13:49;;;;;;;;;;;;;;;;;;5076053;28;4979;-56
2023/08/22 00:16:15;;;;;;;;;;;;;;;;;;5055819;28;5540;-58
2023/08/22 00:18:40;;;;;;;;;;;;;;;;;;5071345;28;5029;-58
2023/08/22 00:21:05;;;;;;;;;;;;;;;;;;5070410;28;4979;-58
2023/08/22 00:23:31;;;;;;;;;;;;;;;;;;5070617;28;1136;-57
2023/08/22 00:25:56;;;;;;;;;;;;;;;;;;5080679;28;4936;-58
2023/08/22 00:28:21;;;;;;;;;;;;;;;;;;5078313;28;4829;-58
2023/08/22 00:30:47;;;;;;;;;;;;;;;;;;5083265;28;4426;-58
2023/08/22 00:33:12;;;;;;;;;;;;;;;;;;5077517;28;5074;-58
2023/08/22 00:35:37;;;;;;;;;;;;;;;;;;5079876;28;1155;-58
2023/08/22 00:38:02;;;;;;;;;;;;;;;;;;5074241;28;5091;-57
2023/08/22 00:40:28;;;;;;;;;;;;;;;;;;5079033;28;4989;-58
2023/08/22 00:42:53;;;;;;;;;;;;;;;;;;5078207;28;5070;-58
2023/08/22 00:45:18;;;;;;;;;;;;;;;;;;5073927;28;4899;-58
2023/08/22 00:47:43;;;;;;;;;;;;;;;;;;5082160;28;4412;-57
2023/08/22 00:50:09;;;;;;;;;;;;;;;;;;5072513;28;1424;-58
2023/08/22 00:52:34;;;;;;;;;;;;;;;;;;5074286;28;4836;-58
2023/08/22 00:54:59;;;;;;;;;;;;;;;;;;5069941;28;5067;-58
2023/08/22 00:57:25;;;;;;;;;;;;;;;;;;5067243;28;4972;-58
2023/08/22 00:59:50;;;;;;;;;;;;;;;;;;5065980;28;4872;-58
2023/08/22 01:02:15;;;;;;;;;;;;;;;;;;5077518;28;1301;-57
2023/08/22 01:04:40;;;;;;;;;;;;;;;;;;5068599;28;4943;-58
2023/08/22 01:07:18;;;;;;;;;;;;;;;;;;5067593;28;5097;-58
2023/08/22 01:09:48;;;;;;;;;;;;;;;;;;5048335;28;4546;-58
2023/08/22 01:12:19;;;;;;;;;;;;;;;;;;5068626;28;5292;-57
2023/08/22 01:14:53;;;;;;;;;;;;;;;;;;5064687;28;4481;-58
2023/08/22 01:17:19;;;;;;;;;;;;;;;;;;5060030;28;4799;-58
2023/08/22 01:19:44;;;;;;;;;;;;;;;;;;5070722;28;5057;-58
2023/08/22 01:22:10;;;;;;;;;;;;;;;;;;5067040;28;4445;-58
2023/08/22 01:24:35;;;;;;;;;;;;;;;;;;5071819;28;5042;-58
2023/08/22 01:27:00;;;;;;;;;;;;;;;;;;5066558;28;4963;-58
2023/08/22 01:29:30;;;;;;;;;;;;;;;;;;5068534;28;1270;-58
2023/08/22 01:32:01;;;;;;;;;;;;;;;;;;5067628;28;5234;-58
2023/08/22 01:34:27;;;;;;;;;;;;;;;;;;5065295;28;4927;-58
2023/08/22 01:36:53;;;;;;;;;;;;;;;;;;5065771;28;4803;-58
2023/08/22 01:39:18;;;;;;;;;;;;;;;;;;5049107;28;5248;-58
2023/08/22 01:41:44;;;;;;;;;;;;;;;;;;5079334;28;5349;-57
2023/08/22 01:44:09;;;;;;;;;;;;;;;;;;5068163;28;1432;-58
2023/08/22 01:46:34;;;;;;;;;;;;;;;;;;5082357;28;5345;-57
2023/08/22 01:48:59;;;;;;;;;;;;;;;;;;5067760;28;5004;-58
2023/08/22 01:51:25;;;;;;;;;;;;;;;;;;5057158;28;5048;-58
2023/08/22 01:53:50;;;;;;;;;;;;;;;;;;5067489;28;4469;-58
2023/08/22 01:56:15;;;;;;;;;;;;;;;;;;5077978;28;1113;-58
2023/08/22 01:58:40;;;;;;;;;;;;;;;;;;5071199;28;4611;-58
2023/08/22 02:01:08;;;;;;;;;;;;;;;;;;5074206;28;5227;-57
2023/08/22 02:03:33;;;;;;;;;;;;;;;;;;5076463;28;4850;-58
2023/08/22 02:05:58;;;;;;;;;;;;;;;;;;5079029;28;5201;-58
2023/08/22 02:08:24;;;;;;;;;;;;;;;;;;5080477;28;1193;-56
2023/08/22 02:10:49;;;;;;;;;;;;;;;;;;5075989;28;5308;-58
2023/08/22 02:13:14;;;;;;;;;;;;;;;;;;5069877;28;5048;-58
2023/08/22 02:15:39;;;;;;;;;;;;;;;;;;5072846;28;5060;-58
2023/08/22 02:18:05;;;;;;;;;;;;;;;;;;5056838;28;5125;-58
2023/08/22 02:20:30;;;;;;;;;;;;;;;;;;5074986;28;1555;-58
2023/08/22 02:22:55;;;;;;;;;;;;;;;;;;5074859;28;4887;-58
2023/08/22 02:25:21;;;;;;;;;;;;;;;;;;5074725;28;5059;-58
2023/08/22 02:27:46;;;;;;;;;;;;;;;;;;5072746;28;4994;-58
2023/08/22 02:30:12;;;;;;;;;;;;;;;;;;5076295;28;4869;-58
2023/08/22 02:32:37;;;;;;;;;;;;;;;;;;5066135;28;2037;-58
2023/08/22 02:35:03;;;;;;;;;;;;;;;;;;5066324;28;5029;-58
2023/08/22 02:37:28;;;;;;;;;;;;;;;;;;5068556;28;5223;-58
2023/08/22 02:39:55;;;;;;;;;;;;;;;;;;5070464;28;5268;-58
2023/08/22 02:42:21;;;;;;;;;;;;;;;;;;5069740;28;4590;-58
2023/08/22 02:44:46;;;;;;;;;;;;;;;;;;5079390;28;4993;-58
2023/08/22 02:47:11;;;;;;;;;;;;;;;;;;5073161;28;1089;-58
2023/08/22 02:49:36;;;;;;;;;;;;;;;;;;5076379;28;5099;-58
2023/08/22 02:52:02;;;;;;;;;;;;;;;;;;5069958;28;4992;-58
2023/08/22 02:54:27;;;;;;;;;;;;;;;;;;5060776;28;4454;-58
2023/08/22 02:56:53;;;;;;;;;;;;;;;;;;5045768;28;4415;-58
2023/08/22 02:59:20;;;;;;;;;;;;;;;;;;5047290;28;1144;-58
2023/08/22 03:01:45;;;;;;;;;;;;;;;;;;5042027;28;4974;-58
2023/08/22 03:04:10;;;;;;;;;;;;;;;;;;5047150;28;5036;-58
2023/08/22 03:06:36;;;;;;;;;;;;;;;;;;5045430;28;4495;-57
2023/08/22 03:09:03;;;;;;;;;;;;;;;;;;5046614;28;5019;-58
2023/08/22 03:11:28;;;;;;;;;;;;;;;;;;5047274;28;1898;-58
2023/08/22 03:13:53;;;;;;;;;;;;;;;;;;5046672;28;4939;-57
2023/08/22 03:16:18;;;;;;;;;;;;;;;;;;5045855;28;4963;-58
2023/08/22 03:18:44;;;;;;;;;;;;;;;;;;5045796;28;4969;-58
2023/08/22 03:21:09;;;;;;;;;;;;;;;;;;5045291;28;4969;-58
2023/08/22 03:23:34;;;;;;;;;;;;;;;;;;5022469;28;1366;-58
2023/08/22 03:26:00;;;;;;;;;;;;;;;;;;5066386;28;4962;-58
2023/08/22 03:28:25;;;;;;;;;;;;;;;;;;5047521;28;4489;-58
2023/08/22 03:30:57;;;;;;;;;;;;;;;;;;5045891;28;5080;-58
2023/08/22 03:33:22;;;;;;;;;;;;;;;;;;5041420;28;5513;-58
2023/08/22 03:35:48;;;;;;;;;;;;;;;;;;5046843;28;4909;-58
2023/08/22 03:38:13;;;;;;;;;;;;;;;;;;5045881;28;1149;-58
2023/08/22 03:40:38;;;;;;;;;;;;;;;;;;5051089;28;5041;-58
2023/08/22 03:43:03;;;;;;;;;;;;;;;;;;5044170;28;4468;-58
2023/08/22 03:45:29;;;;;;;;;;;;;;;;;;5048188;28;4934;-58
2023/08/22 03:47:54;;;;;;;;;;;;;;;;;;5041672;28;4449;-58
2023/08/22 03:50:19;;;;;;;;;;;;;;;;;;5045233;28;1517;-58
2023/08/22 03:52:44;;;;;;;;;;;;;;;;;;5043606;28;4826;-58
2023/08/22 03:55:10;;;;;;;;;;;;;;;;;;5071132;28;5108;-58
2023/08/22 03:57:35;;;;;;;;;;;;;;;;;;5069251;28;4647;-58
2023/08/22 04:00:00;;;;;;;;;;;;;;;;;;5068747;28;5204;-58
2023/08/22 04:02:26;;;;;;;;;;;;;;;;;;5067517;28;1334;-58
2023/08/22 04:04:51;;;;;;;;;;;;;;;;;;5082285;28;5067;-58
2023/08/22 04:07:16;;;;;;;;;;;;;;;;;;5078105;28;4593;-58
2023/08/22 04:09:41;;;;;;;;;;;;;;;;;;5073967;28;4598;-58
2023/08/22 04:12:07;;;;;;;;;;;;;;;;;;5080827;28;4485;-58
2023/08/22 04:14:32;;;;;;;;;;;;;;;;;;5076344;28;1182;-58
2023/08/22 04:16:58;;;;;;;;;;;;;;;;;;5076282;28;5083;-58
2023/08/22 04:19:24;;;;;;;;;;;;;;;;;;5086082;28;5088;-58
2023/08/22 04:21:50;;;;;;;;;;;;;;;;;;5077769;28;4852;-58
2023/08/22 04:24:15;;;;;;;;;;;;;;;;;;5077720;28;5027;-58
2023/08/22 04:26:40;;;;;;;;;;;;;;;;;;5072770;28;5108;-58
2023/08/22 04:29:06;;;;;;;;;;;;;;;;;;5074906;28;1081;-57
2023/08/22 04:31:31;;;;;;;;;;;;;;;;;;5066591;28;5184;-60
2023/08/22 04:33:56;;;;;;;;;;;;;;;;;;5070624;28;5091;-58
2023/08/22 04:36:21;;;;;;;;;;;;;;;;;;5084602;28;5033;-58
2023/08/22 04:38:49;;;;;;;;;;;;;;;;;;5070565;28;4818;-58
2023/08/22 04:41:14;;;;;;;;;;;;;;;;;;5076726;28;1166;-58
2023/08/22 04:43:40;;;;;;;;;;;;;;;;;;5076832;28;5074;-58
2023/08/22 04:46:05;;;;;;;;;;;;;;;;;;5071406;28;4975;-58
2023/08/22 04:48:30;;;;;;;;;;;;;;;;;;5059186;28;5079;-58
2023/08/22 04:50:55;;;;;;;;;;;;;;;;;;5068432;28;4866;-58
2023/08/22 04:53:21;;;;;;;;;;;;;;;;;;5059938;28;3361;-58
2023/08/22 04:55:46;;;;;;;;;;;;;;;;;;5074164;28;5099;-57
2023/08/22 04:58:11;;;;;;;;;;;;;;;;;;5065538;28;4645;-57
2023/08/22 05:00:36;;;;;;;;;;;;;;;;;;5073807;28;5063;-58
2023/08/22 05:03:02;;;;;;;;;;;;;;;;;;5061761;28;5079;-58
2023/08/22 05:05:28;;;;;;;;;;;;;;;;;;5068557;28;3316;-57
2023/08/22 05:07:53;;;;;;;;;;;;;;;;;;5066687;28;5110;-58
2023/08/22 05:10:18;;;;;;;;;;;;;;;;;;5076945;28;5082;-58
2023/08/22 05:12:44;;;;;;;;;;;;;;;;;;5069410;28;5143;-57
2023/08/22 05:15:09;;;;;;;;;;;;;;;;;;5059959;28;5022;-58
2023/08/22 05:17:34;;;;;;;;;;;;;;;;;;5061248;28;4704;-58
2023/08/22 05:20:00;;;;;;;;;;;;;;;;;;5067113;28;4378;-58
2023/08/22 05:22:25;;;;;;;;;;;;;;;;;;5058802;28;4951;-58
2023/08/22 05:24:50;;;;;;;;;;;;;;;;;;5076640;28;4862;-58
2023/08/22 05:27:17;;;;;;;;;;;;;;;;;;5067554;28;4965;-58
2023/08/22 05:29:42;;;;;;;;;;;;;;;;;;5072629;28;5036;-58
2023/08/22 05:32:07;;;;;;;;;;;;;;;;;;5073554;28;1918;-58
2023/08/22 05:34:33;;;;;;;;;;;;;;;;;;5076416;28;4423;-60
2023/08/22 05:36:58;;;;;;;;;;;;;;;;;;5063498;28;5077;-58
2023/08/22 05:39:23;;;;;;;;;;;;;;;;;;5074536;28;5466;-58
2023/08/22 05:41:48;;;;;;;;;;;;;;;;;;5064466;28;4995;-58
2023/08/22 05:44:14;;;;;;;;;;;;;;;;;;5072105;28;1164;-58
2023/08/22 05:46:39;;;;;;;;;;;;;;;;;;5074878;28;4919;-58
2023/08/22 05:49:04;;;;;;;;;;;;;;;;;;5075496;28;5011;-58
2023/08/22 05:51:29;;;;;;;;;;;;;;;;;;5067476;28;4641;-58
2023/08/22 05:53:55;;;;;;;;;;;;;;;;;;5078580;28;5062;-58
2023/08/22 05:56:20;;;;;;;;;;;;;;;;;;5070336;28;1340;-58
2023/08/22 05:58:45;;;;;;;;;;;;;;;;;;5076865;28;5572;-58
2023/08/22 06:01:11;;;;;;;;;;;;;;;;;;5079709;28;5017;-57
2023/08/22 06:03:36;;;;;;;;;;;;;;;;;;5080850;28;4985;-59
2023/08/22 06:06:03;;;;;;;;;;;;;;;;;;5066056;28;5067;-58
2023/08/22 06:08:28;;;;;;;;;;;;;;;;;;5068157;28;1104;-58
2023/08/22 06:10:53;;;;;;;;;;;;;;;;;;5071765;28;4735;-58
2023/08/22 06:13:18;;;;;;;;;;;;;;;;;;5075205;28;4584;-58
2023/08/22 06:15:44;;;;;;;;;;;;;;;;;;5056117;28;4997;-58
2023/08/22 06:18:09;;;;;;;;;;;;;;;;;;5071657;28;5373;-58
2023/08/22 06:20:38;;;;;;;;;;;;;;;;;;5073502;28;1416;-58
2023/08/22 06:23:04;;;;;;;;;;;;;;;;;;5048852;28;4565;-59
2023/08/22 06:25:29;;;;;;;;;;;;;;;;;;5056821;28;5056;-58
2023/08/22 06:27:54;;;;;;;;;;;;;;;;;;5070376;28;4472;-58
2023/08/22 06:30:19;;;;;;;;;;;;;;;;;;5073851;28;4983;-59
2023/08/22 06:32:45;;;;;;;;;;;;;;;;;;5068081;28;5120;-58
2023/08/22 06:35:10;;;;;;;;;;;;;;;;;;5069648;28;973;-58
2023/08/22 06:37:35;;;;;;;;;;;;;;;;;;5070447;28;4933;-58
2023/08/22 06:40:00;;;;;;;;;;;;;;;;;;5066764;28;4990;-58
2023/08/22 06:42:26;;;;;;;;;;;;;;;;;;5075239;28;4413;-58
2023/08/22 06:44:51;;;;;;;;;;;;;;;;;;5075249;28;4409;-58
2023/08/22 06:47:16;;;;;;;;;;;;;;;;;;5068302;28;1132;-58
2023/08/22 06:49:42;;;;;;;;;;;;;;;;;;5077694;28;4940;-59
2023/08/22 06:52:07;;;;;;;;;;;;;;;;;;5060669;28;4959;-58
2023/08/22 06:54:32;;;;;;;;;;;;;;;;;;5068704;28;4737;-58
2023/08/22 06:56:57;;;;;;;;;;;;;;;;;;5065821;28;4677;-60
2023/08/22 06:59:23;;;;;;;;;;;;;;;;;;5066984;28;1339;-58
2023/08/22 07:01:48;;;;;;;;;;;;;;;;;;5066346;28;5050;-57
2023/08/22 07:04:13;;;;;;;;;;;;;;;;;;5063073;28;4936;-57
2023/08/22 07:06:38;;;;;;;;;;;;;;;;;;5062241;28;5114;-56
2023/08/22 07:09:04;;;;;;;;;;;;;;;;;;5057851;28;5141;-59
2023/08/22 07:11:29;;;;;;;;;;;;;;;;;;5060783;28;3188;-59
2023/08/22 07:13:54;;;;;;;;;;;;;;;;;;5067826;28;5043;-59
2023/08/22 07:16:20;;;;;;;;;;;;;;;;;;5065198;28;4979;-57
2023/08/22 07:18:45;;;;;;;;;;;;;;;;;;5061186;28;4965;-57
2023/08/22 07:21:10;;;;;;;;;;;;;;;;;;5068637;28;5000;-57
2023/08/22 07:23:35;;;;;;;;;;;;;;;;;;5066683;28;1135;-57
2023/08/22 07:26:01;;;;;;;;;;;;;;;;;;5065713;28;5116;-57
2023/08/22 07:28:26;;;;;;;;;;;;;;;;;;5068126;28;5086;-57
2023/08/22 07:30:53;;;;;;;;;;;;;;;;;;5069114;28;5118;-57
2023/08/22 07:33:18;;;;;;;;;;;;;;;;;;5061042;28;4608;-58
2023/08/22 07:35:44;;;;;;;;;;;;;;;;;;5065537;28;5143;-57
2023/08/22 07:38:09;;;;;;;;;;;;;;;;;;5068410;28;1093;-61
2023/08/22 07:40:38;;;;;;;;;;;;;;;;;;5066772;28;5022;-64
2023/08/22 07:43:04;;;;;;;;;;;;;;;;;;5068795;28;4651;-62
2023/08/22 07:45:29;;;;;;;;;;;;;;;;;;5070593;28;5301;-63
2023/08/22 07:47:54;;;;;;;;;;;;;;;;;;5062796;28;4444;-65
2023/08/22 07:50:20;;;;;;;;;;;;;;;;;;5070502;28;1612;-62
2023/08/22 07:52:45;;;;;;;;;;;;;;;;;;5068928;28;5110;-63
2023/08/22 07:55:10;;;;;;;;;;;;;;;;;;5076070;28;4512;-63
2023/08/22 07:57:35;;;;;;;;;;;;;;;;;;5069232;28;4491;-62
2023/08/22 08:00:01;;;;;;;;;;;;;;;;;;5070009;28;5101;-66
2023/08/22 08:02:27;;;;;;;;;;;;;;;;;;5064676;28;1073;-67
2023/08/22 08:04:52;;;;;;;;;;;;;;;;;;5067680;28;5550;-65
2023/08/22 08:07:18;;;;;;;;;;;;;;;;;;5069568;28;4854;-67
2023/08/22 08:09:43;;;;;;;;;;;;;;;;;;5065194;28;4972;-70
2023/08/22 08:12:08;;;;;;;;;;;;;;;;;;5071099;28;5738;-67
2023/08/22 08:14:34;;;;;;;;;;;;;;;;;;5051645;28;1364;-67
2023/08/22 08:16:59;;;;;;;;;;;;;;;;;;5060447;28;5037;-65
2023/08/22 08:19:24;;;;;;;;;;;;;;;;;;5070064;28;4988;-62
2023/08/22 08:21:49;;;;;;;;;;;;;;;;;;5066699;28;4790;-68
2023/08/22 08:24:15;;;;;;;;;;;;;;;;;;5052832;28;5162;-66
2023/08/22 08:26:40;;;;;;;;;;;;;;;;;;5064141;28;4888;-58
2023/08/22 08:29:05;;;;;;;;;;;;;;;;;;5064536;28;1116;-54
2023/08/22 08:31:31;;;;;;;;;;;;;;;;;;5053737;28;4823;-51
2023/08/22 08:33:56;;;;;;;;;;;;;;;;;;5068535;28;4960;-49
2023/08/22 08:36:21;;;;;;;;;;;;;;;;;;5068540;28;5059;-52
2023/08/22 08:38:46;;;;;;;;;;;;;;;;;;5069003;28;5065;-52
2023/08/22 08:41:12;;;;;;;;;;;;;;;;;;5060102;28;1089;-48
2023/08/22 08:43:37;;;;;;;;;;;;;;;;;;5066655;28;4863;-52
2023/08/22 08:46:03;;;;;;;;;;;;;;;;;;5084376;28;5027;-51
2023/08/22 08:48:28;;;;;;;;;;;;;;;;;;5070422;28;5331;-50
2023/08/22 08:50:53;;;;;;;;;;;;;;;;;;5061740;28;4878;-52
2023/08/22 08:53:18;;;;;;;;;;;;;;;;;;5066686;28;1987;-52
2023/08/22 08:55:45;;;;;;;;;;;;;;;;;;5071421;28;4970;-48
2023/08/22 08:58:10;;;;;;;;;;;;;;;;;;5062147;28;5294;-50
2023/08/22 09:00:35;;;;;;;;;;;;;;;;;;5066952;28;4967;-52
2023/08/22 09:03:01;;;;;;;;;;;;;;;;;;5068145;28;4964;-51
2023/08/22 09:05:28;;;;;;;;;;;;;;;;;;5068769;28;1251;-52
2023/08/22 09:07:53;;;;;;;;;;;;;;;;;;5057987;28;5048;-51
2023/08/22 09:10:31;;;;;;;;;;;;;;;;;;5063806;28;4956;-51
2023/08/22 09:12:56;;;;;;;;;;;;;;;;;;5064162;28;5041;-51
2023/08/22 09:15:22;;;;;;;;;;;;;;;;;;5050117;28;5107;-52
2023/08/22 09:17:47;;;;;;;;;;;;;;;;;;5064651;28;5139;-51
2023/08/22 09:20:12;;;;;;;;;;;;;;;;;;5067868;28;1168;-49
2023/08/22 09:22:38;;;;;;;;;;;;;;;;;;5065795;28;5211;-51
2023/08/22 09:25:07;;;;;;;;;;;;;;;;;;5083876;28;5063;-51
2023/08/22 09:27:33;;;;;;;;;;;;;;;;;;5066485;28;5039;-49
2023/08/22 09:30:01;;;;;;;;;;;;;;;;;;5067793;28;5051;-62
2023/08/22 09:32:27;;;;;;;;;;;;;;;;;;5063758;28;3366;-53
2023/08/22 09:34:53;;;;;;;;;;;;;;;;;;5056983;28;4934;-54
2023/08/22 09:37:37;;;;;;;;;;;;;;;;;;5048696;28;5052;-55
2023/08/22 09:40:03;;;;;;;;;;;;;;;;;;5044980;28;5104;-51
2023/08/22 09:42:29;;;;;;;;;;;;;;;;;;5045268;28;4565;-51
2023/08/22 09:44:55;;;;;;;;;;;;;;;;;;5059102;28;4986;-55
2023/08/22 09:47:20;;;;;;;;;;;;;;;;;;5062643;28;1224;-53
2023/08/22 09:49:45;;;;;;;;;;;;;;;;;;5062141;28;4961;-58
2023/08/22 09:52:11;;;;;;;;;;;;;;;;;;5059935;28;5192;-55
2023/08/22 09:54:36;;;;;;;;;;;;;;;;;;5060570;28;5222;-55
2023/08/22 09:57:01;;;;;;;;;;;;;;;;;;5067784;28;5004;-58
2023/08/22 09:59:26;;;;;;;;;;;;;;;;;;5066508;28;3203;-57
2023/08/22 10:01:52;;;;;;;;;;;;;;;;;;5057697;28;5150;-53
2023/08/22 10:04:17;;;;;;;;;;;;;;;;;;5064901;28;5096;-50
2023/08/22 10:06:42;;;;;;;;;;;;;;;;;;5067069;28;5091;-53
2023/08/22 10:09:09;;;;;;;;;;;;;;;;;;5060517;28;5281;-54
2023/08/22 10:11:38;;;;;;;;;;;;;;;;;;5062560;28;3312;-54
2023/08/22 10:14:04;;;;;;;;;;;;;;;;;;5044784;28;4536;-55
2023/08/22 10:16:29;;;;;;;;;;;;;;;;;;5065026;28;5057;-59
2023/08/22 10:19:02;;;;;;;;;;;;;;;;;;5047772;28;5339;-59
2023/08/22 10:21:31;;;;;;;;;;;;;;;;;;5059411;28;5182;-61
2023/08/22 10:23:58;;;;;;;;;;;;;;;;;;5061848;28;4981;-60
2023/08/22 10:26:25;;;;;;;;;;;;;;;;;;5067361;28;1258;-60
2023/08/22 10:29:09;;;;;;;;;;;;;;;;;;5053054;28;5137;-60
2023/08/22 10:31:54;;;;;;;;;;;;;;;;;;5054009;28;5058;-60
2023/08/22 10:34:19;;;;;;;;;;;;;;;;;;5064018;28;5492;-60
2023/08/22 10:36:59;;;;;;;;;;;;;;;;;;5061325;28;5142;-56
2023/08/22 10:39:39;;;;;;;;;;;;;;;;;;5057496;28;4964;-57
2023/08/22 10:42:08;;;;;;;;;;;;;;;;;;5055713;28;4617;-56
2023/08/22 10:44:36;;;;;;;;;;;;;;;;;;5056677;28;1133;-58
2023/08/22 10:47:02;;;;;;;;;;;;;;;;;;5037356;28;5041;-59
2023/08/22 10:49:28;;;;;;;;;;;;;;;;;;5064958;28;5011;-63
2023/08/22 10:52:06;;;;;;;;;;;;;;;;;;5051059;28;4880;-59
2023/08/22 10:54:32;;;;;;;;;;;;;;;;;;5065300;28;5615;-55
2023/08/22 10:57:16;;;;;;;;;;;;;;;;;;5062523;28;5162;-55
2023/08/22 10:59:54;;;;;;;;;;;;;;;;;;5062566;28;5129;-57
2023/08/22 11:02:19;;;;;;;;;;;;;;;;;;5054660;28;3223;-56
2023/08/22 11:04:44;;;;;;;;;;;;;;;;;;5053346;28;5163;-56
2023/08/22 11:07:10;;;;;;;;;;;;;;;;;;5081915;28;5282;-59
2023/08/22 11:09:35;;;;;;;;;;;;;;;;;;5065194;28;5131;-57
2023/08/22 11:12:01;;;;;;;;;;;;;;;;;;5062016;28;5161;-58
2023/08/22 11:14:26;;;;;;;;;;;;;;;;;;5062835;28;1221;-58
2023/08/22 11:16:51;;;;;;;;;;;;;;;;;;5060530;28;4968;-54
2023/08/22 11:19:17;;;;;;;;;;;;;;;;;;5064720;28;4624;-59
2023/08/22 11:21:42;;;;;;;;;;;;;;;;;;5066734;28;4891;-58
2023/08/22 11:24:08;;;;;;;;;;;;;;;;;;5066295;28;5171;-58
2023/08/22 11:26:33;;;;;;;;;;;;;;;;;;5069603;28;1183;-58
2023/08/22 11:29:04;;;;;;;;;;;;;;;;;;5067453;28;5072;-54
2023/08/22 11:31:30;;;;;;;;;;;;;;;;;;5061659;28;4422;-63
2023/08/22 11:33:56;;;;;;;;;;;;;;;;;;5064640;28;5165;-57
2023/08/22 11:36:21;;;;;;;;;;;;;;;;;;5060129;28;4483;-56
2023/08/22 11:38:47;;;;;;;;;;;;;;;;;;5077578;28;5078;-61
2023/08/22 11:41:12;;;;;;;;;;;;;;;;;;5052513;28;3435;-58
2023/08/22 11:43:44;;;;;;;;;;;;;;;;;;5057734;28;5114;-61
2023/08/22 11:46:09;;;;;;;;;;;;;;;;;;5063854;28;4639;-58
2023/08/22 11:48:35;;;;;;;;;;;;;;;;;;5062860;28;4981;-63
2023/08/22 11:51:00;;;;;;;;;;;;;;;;;;5054817;28;4872;-59
2023/08/22 11:53:28;;;;;;;;;;;;;;;;;;5066573;28;1979;-57
2023/08/22 11:55:55;;;;;;;;;;;;;;;;;;5045916;28;5031;-62
2023/08/22 11:58:21;;;;;;;;;;;;;;;;;;5055540;28;5004;-59
2023/08/22 12:00:46;;;;;;;;;;;;;;;;;;5067659;28;5002;-60
2023/08/22 12:03:12;;;;;;;;;;;;;;;;;;5065853;28;5029;-56
2023/08/22 12:05:38;;;;;;;;;;;;;;;;;;5069683;28;1152;-59
2023/08/22 12:08:06;;;;;;;;;;;;;;;;;;5060285;28;4994;-57
2023/08/22 12:10:41;;;;;;;;;;;;;;;;;;5062676;28;4902;-54
2023/08/22 12:13:06;;;;;;;;;;;;;;;;;;5061109;28;5037;-56
2023/08/22 12:15:32;;;;;;;;;;;;;;;;;;5054696;28;4998;-53
2023/08/22 12:17:58;;;;;;;;;;;;;;;;;;5061163;28;4716;-52
2023/08/22 12:20:23;;;;;;;;;;;;;;;;;;5058042;28;3299;-54
2023/08/22 12:22:48;;;;;;;;;;;;;;;;;;5059818;28;5033;-55
2023/08/22 12:25:13;;;;;;;;;;;;;;;;;;5062506;28;4896;-54
2023/08/22 12:27:39;;;;;;;;;;;;;;;;;;5057689;28;4700;-55
2023/08/22 12:30:04;;;;;;;;;;;;;;;;;;5062354;28;5076;-53
2023/08/22 12:32:31;;;;;;;;;;;;;;;;;;5067175;28;3518;-53
2023/08/22 12:34:56;;;;;;;;;;;;;;;;;;5049301;28;4537;-54
2023/08/22 12:37:22;;;;;;;;;;;;;;;;;;5068719;28;4849;-55
2023/08/22 12:39:47;;;;;;;;;;;;;;;;;;5068559;28;4474;-53
2023/08/22 12:42:12;;;;;;;;;;;;;;;;;;5066266;28;4768;-53
2023/08/22 12:44:37;;;;;;;;;;;;;;;;;;5062916;28;1373;-54
2023/08/22 12:47:03;;;;;;;;;;;;;;;;;;5060807;28;4399;-56
2023/08/22 12:49:28;;;;;;;;;;;;;;;;;;5067083;28;4652;-56
2023/08/22 12:51:53;;;;;;;;;;;;;;;;;;5068864;28;5165;-65
2023/08/22 12:54:18;;;;;;;;;;;;;;;;;;5056922;28;5245;-54
2023/08/22 12:56:44;;;;;;;;;;;;;;;;;;5063132;28;5127;-53
2023/08/22 12:59:09;;;;;;;;;;;;;;;;;;5068252;28;1009;-60
2023/08/22 13:01:34;;;;;;;;;;;;;;;;;;5065318;28;5109;-61
2023/08/22 13:04:00;;;;;;;;;;;;;;;;;;5070264;28;5110;-58
2023/08/22 13:06:26;;;;;;;;;;;;;;;;;;5067952;28;5199;-57
2023/08/22 13:08:52;;;;;;;;;;;;;;;;;;5062545;28;5037;-53
2023/08/22 13:11:18;;;;;;;;;;;;;;;;;;5046288;28;1997;-53
2023/08/22 13:13:43;;;;;;;;;;;;;;;;;;5070435;28;4823;-57
2023/08/22 13:16:08;;;;;;;;;;;;;;;;;;5068640;28;4648;-52
2023/08/22 13:18:34;;;;;;;;;;;;;;;;;;5068322;28;5105;-51
2023/08/22 13:20:59;;;;;;;;;;;;;;;;;;5057257;28;4635;-52
2023/08/22 13:23:25;;;;;;;;;;;;;;;;;;5069295;28;1023;-59
2023/08/22 13:25:50;;;;;;;;;;;;;;;;;;5061590;28;4984;-56
2023/08/22 13:28:16;;;;;;;;;;;;;;;;;;5066373;28;4745;-55
2023/08/22 13:30:41;;;;;;;;;;;;;;;;;;5064163;28;4466;-55
2023/08/22 13:33:06;;;;;;;;;;;;;;;;;;5067716;28;5036;-54
2023/08/22 13:35:32;;;;;;;;;;;;;;;;;;5067664;28;1065;-57
2023/08/22 13:37:57;;;;;;;;;;;;;;;;;;5063952;28;5009;-55
2023/08/22 13:40:22;;;;;;;;;;;;;;;;;;5064024;28;4409;-56
2023/08/22 13:42:47;;;;;;;;;;;;;;;;;;5067494;28;4438;-56
2023/08/22 13:45:13;;;;;;;;;;;;;;;;;;5065412;28;5122;-56
2023/08/22 13:47:38;;;;;;;;;;;;;;;;;;5066325;28;2422;-56
2023/08/22 13:50:05;;;;;;;;;;;;;;;;;;5066075;28;5014;-55
2023/08/22 13:52:30;;;;;;;;;;;;;;;;;;5063720;28;4434;-53
2023/08/22 13:54:55;;;;;;;;;;;;;;;;;;5059356;28;5161;-53
2023/08/22 13:57:20;;;;;;;;;;;;;;;;;;5064921;28;5195;-55
2023/08/22 13:59:46;;;;;;;;;;;;;;;;;;5066085;28;5217;-56
2023/08/22 14:02:11;;;;;;;;;;;;;;;;;;5067681;28;1286;-56
2023/08/22 14:04:36;;;;;;;;;;;;;;;;;;5064450;28;4996;-56
2023/08/22 14:07:02;;;;;;;;;;;;;;;;;;5063141;28;5030;-57
2023/08/22 14:09:27;;;;;;;;;;;;;;;;;;5064700;28;4958;-56
2023/08/22 14:11:53;;;;;;;;;;;;;;;;;;5065894;28;5187;-57
2023/08/22 14:14:18;;;;;;;;;;;;;;;;;;5061699;28;3486;-55
2023/08/22 14:16:43;;;;;;;;;;;;;;;;;;5065049;28;5156;-55
2023/08/22 14:19:08;;;;;;;;;;;;;;;;;;5048631;28;5088;-53
2023/08/22 14:21:34;;;;;;;;;;;;;;;;;;5063459;28;4462;-54
2023/08/22 14:23:59;;;;;;;;;;;;;;;;;;5065167;28;5182;-54
2023/08/22 14:26:24;;;;;;;;;;;;;;;;;;5065456;28;3243;-53
2023/08/22 14:28:50;;;;;;;;;;;;;;;;;;5062194;28;4934;-53
2023/08/22 14:31:15;;;;;;;;;;;;;;;;;;5063686;28;5096;-54
2023/08/22 14:33:40;;;;;;;;;;;;;;;;;;5063122;28;5098;-54
2023/08/22 14:36:06;;;;;;;;;;;;;;;;;;5064146;28;4526;-55
2023/08/22 14:38:33;;;;;;;;;;;;;;;;;;5067027;28;2427;-55
2023/08/22 14:40:58;;;;;;;;;;;;;;;;;;5062772;28;5035;-54
2023/08/22 14:43:26;;;;;;;;;;;;;;;;;;5066199;28;5131;-53
2023/08/22 14:45:51;;;;;;;;;;;;;;;;;;5065393;28;5033;-54
2023/08/22 14:48:17;;;;;;;;;;;;;;;;;;5063516;28;4636;-54
2023/08/22 14:50:42;;;;;;;;;;;;;;;;;;5061180;28;5041;-54
2023/08/22 14:53:11;;;;;;;;;;;;;;;;;;5067168;28;1902;-52
2023/08/22 14:55:36;;;;;;;;;;;;;;;;;;5058539;28;5049;-54
2023/08/22 14:58:02;;;;;;;;;;;;;;;;;;5063616;28;4582;-54
2023/08/22 15:00:28;;;;;;;;;;;;;;;;;;5047027;28;5044;-54
2023/08/22 15:02:53;;;;;;;;;;;;;;;;;;5062147;28;5047;-54
2023/08/22 15:05:18;;;;;;;;;;;;;;;;;;5066180;28;3228;-54
2023/08/22 15:07:43;;;;;;;;;;;;;;;;;;5063675;28;5045;-55
2023/08/22 15:10:09;;;;;;;;;;;;;;;;;;5062820;28;5073;-53
2023/08/22 15:12:34;;;;;;;;;;;;;;;;;;5065237;28;5193;-55
2023/08/22 15:14:59;;;;;;;;;;;;;;;;;;5064546;28;5190;-54
2023/08/22 15:17:25;;;;;;;;;;;;;;;;;;5057842;28;4835;-52
2023/08/22 15:19:54;;;;;;;;;;;;;;;;;;5063634;28;4868;-53
2023/08/22 15:22:20;;;;;;;;;;;;;;;;;;5065076;28;5310;-53
2023/08/22 15:24:45;;;;;;;;;;;;;;;;;;5063944;28;5022;-51
2023/08/22 15:27:10;;;;;;;;;;;;;;;;;;5061698;28;4637;-53
2023/08/22 15:29:35;;;;;;;;;;;;;;;;;;5065540;28;3374;-54
2023/08/22 15:32:01;;;;;;;;;;;;;;;;;;5060437;28;5051;-54
2023/08/22 15:34:26;;;;;;;;;;;;;;;;;;5056981;28;5010;-54
2023/08/22 15:36:51;;;;;;;;;;;;;;;;;;5064871;28;5013;-55
2023/08/22 15:39:16;;;;;;;;;;;;;;;;;;5059551;28;4662;-54
2023/08/22 15:41:42;;;;;;;;;;;;;;;;;;5063746;28;4645;-54
2023/08/22 15:44:07;;;;;;;;;;;;;;;;;;5063322;28;3385;-50
2023/08/22 15:46:32;;;;;;;;;;;;;;;;;;5063649;28;4974;-52
2023/08/22 15:48:58;;;;;;;;;;;;;;;;;;5065441;28;5136;-51
2023/08/22 15:51:23;;;;;;;;;;;;;;;;;;5060281;28;4968;-52
2023/08/22 15:53:48;;;;;;;;;;;;;;;;;;5062742;28;4479;-54
2023/08/22 15:56:13;;;;;;;;;;;;;;;;;;5060479;28;3239;-52
2023/08/22 15:58:39;;;;;;;;;;;;;;;;;;5063623;28;4944;-53
2023/08/22 16:01:04;;;;;;;;;;;;;;;;;;5063853;28;4698;-53
2023/08/22 16:03:29;;;;;;;;;;;;;;;;;;5066599;28;4897;-53
2023/08/22 16:05:55;;;;;;;;;;;;;;;;;;5068047;28;4972;-53
2023/08/22 16:08:21;;;;;;;;;;;;;;;;;;5069561;28;1439;-52
2023/08/22 16:10:46;;;;;;;;;;;;;;;;;;5062853;28;4973;-50
2023/08/22 16:13:11;;;;;;;;;;;;;;;;;;5066781;28;4688;-50
2023/08/22 16:15:36;;;;;;;;;;;;;;;;;;5063468;28;5014;-53
2023/08/22 16:18:02;;;;;;;;;;;;;;;;;;5068203;28;5105;-51
2023/08/22 16:20:27;;;;;;;;;;;;;;;;;;5064480;28;1308;-53
2023/08/22 16:22:53;;;;;;;;;;;;;;;;;;5066979;28;4995;-51
2023/08/22 16:25:18;;;;;;;;;;;;;;;;;;5068743;28;4587;-53
2023/08/22 16:27:43;;;;;;;;;;;;;;;;;;5069102;28;5446;-52
2023/08/22 16:30:09;;;;;;;;;;;;;;;;;;5050222;28;5029;-52
2023/08/22 16:32:34;;;;;;;;;;;;;;;;;;5069220;28;1926;-52
2023/08/22 16:34:59;;;;;;;;;;;;;;;;;;5069099;28;5024;-53
2023/08/22 16:37:25;;;;;;;;;;;;;;;;;;5065877;28;5068;-51
2023/08/22 16:39:51;;;;;;;;;;;;;;;;;;5059468;28;4474;-51
2023/08/22 16:42:16;;;;;;;;;;;;;;;;;;5067369;28;5060;-51
2023/08/22 16:44:41;;;;;;;;;;;;;;;;;;5067495;28;4978;-49
2023/08/22 16:47:07;;;;;;;;;;;;;;;;;;5065292;28;1199;-52
2023/08/22 16:49:32;;;;;;;;;;;;;;;;;;5067080;28;5188;-53
2023/08/22 16:51:57;;;;;;;;;;;;;;;;;;5065944;28;5087;-51
2023/08/22 16:54:23;;;;;;;;;;;;;;;;;;5067054;28;5218;-52